Time;durP1;ratioP1;P1;durP2;ratioP2;P2;SDS_P1;SDS_P2;PMS_P1;PMS_P2;Temp;Humidity;BMP_temperature;BMP_pressure;BME280_temperature;BME280_humidity;BME280_pressure;Samples;Min_cycle;Max_cycle;Signal;HPM_P1;HPM_P2
2023/03/15 00:00:27;;;;;;;;;;;17.10;61.90;;;;;;5039624;28;836;-67
2023/03/15 00:02:52;;;;;;;;;;;17.10;61.90;;;;;;5039848;28;1271;-67
2023/03/15 00:05:18;;;;;;;;;;;17.10;61.90;;;;;;5040464;28;927;-66
2023/03/15 00:07:43;;;;;;;;;;;17.10;62.00;;;;;;5037916;28;851;-67
2023/03/15 00:10:09;;;;;;;;;;;17.10;62.00;;;;;;5040382;28;1648;-66
2023/03/15 00:12:34;;;;;;;;;;;17.10;61.90;;;;;;5040334;28;1918;-66
2023/03/15 00:15:00;;;;;;;;;;;17.10;62.00;;;;;;5039121;28;1182;-66
2023/03/15 00:17:25;;;;;;;;;;;17.10;61.90;;;;;;5039536;28;1030;-66
2023/03/15 00:19:51;;;;;;;;;;;17.10;62.00;;;;;;5043275;28;804;-66
2023/03/15 00:22:16;;;;;;;;;;;17.10;62.00;;;;;;5041275;28;1333;-67
2023/03/15 00:24:42;;;;;;;;;;;17.10;62.00;;;;;;5040684;28;985;-67
2023/03/15 00:27:08;;;;;;;;;;;17.10;62.00;;;;;;5025279;28;1405;-67
2023/03/15 00:29:33;;;;;;;;;;;17.10;62.00;;;;;;5046951;28;1191;-67
2023/03/15 00:31:59;;;;;;;;;;;17.10;62.70;;;;;;5041805;28;866;-66
2023/03/15 00:34:24;;;;;;;;;;;17.10;62.00;;;;;;5041451;28;1887;-66
2023/03/15 00:36:52;;;;;;;;;;;17.10;62.00;;;;;;5040233;28;1391;-66
2023/03/15 00:39:18;;;;;;;;;;;17.10;62.00;;;;;;5040431;28;884;-67
2023/03/15 00:41:44;;;;;;;;;;;17.10;62.00;;;;;;5041188;28;853;-66
2023/03/15 00:44:10;;;;;;;;;;;17.10;62.00;;;;;;5039724;28;1259;-67
2023/03/15 00:46:35;;;;;;;;;;;17.10;62.00;;;;;;5035627;28;1346;-67
2023/03/15 00:49:01;;;;;;;;;;;17.10;62.10;;;;;;5041321;28;1026;-67
2023/03/15 00:51:26;;;;;;;;;;;17.10;62.00;;;;;;5042772;28;808;-67
2023/03/15 00:53:52;;;;;;;;;;;17.10;62.10;;;;;;5040014;28;1906;-67
2023/03/15 00:56:18;;;;;;;;;;;17.10;62.00;;;;;;5041234;28;1041;-67
2023/03/15 00:58:44;;;;;;;;;;;17.10;62.10;;;;;;5041255;28;856;-67
2023/03/15 01:01:13;;;;;;;;;;;17.10;62.10;;;;;;5043202;28;883;-67
2023/03/15 01:03:39;;;;;;;;;;;17.10;62.10;;;;;;5043388;28;1339;-67
2023/03/15 01:06:08;;;;;;;;;;;17.10;62.10;;;;;;5039242;28;856;-67
2023/03/15 01:08:34;;;;;;;;;;;17.10;62.10;;;;;;5041173;28;808;-67
2023/03/15 01:11:03;;;;;;;;;;;17.10;62.80;;;;;;5040149;28;868;-67
2023/03/15 01:13:29;;;;;;;;;;;17.10;62.10;;;;;;5038461;28;1902;-67
2023/03/15 01:15:54;;;;;;;;;;;17.10;62.10;;;;;;5039742;28;789;-66
2023/03/15 01:18:20;;;;;;;;;;;17.10;62.10;;;;;;5037857;28;1029;-67
2023/03/15 01:20:45;;;;;;;;;;;17.10;62.10;;;;;;5039258;28;836;-67
2023/03/15 01:23:11;;;;;;;;;;;17.10;62.10;;;;;;5039313;28;1338;-66
2023/03/15 01:25:36;;;;;;;;;;;17.10;62.20;;;;;;5037071;28;998;-66
2023/03/15 01:28:02;;;;;;;;;;;17.10;62.10;;;;;;5039018;28;816;-66
2023/03/15 01:30:27;;;;;;;;;;;17.10;62.20;;;;;;5041588;28;866;-66
2023/03/15 01:32:52;;;;;;;;;;;17.10;62.20;;;;;;5040380;28;1898;-66
2023/03/15 01:35:18;;;;;;;;;;;17.10;62.20;;;;;;5040621;28;911;-65
2023/03/15 01:37:43;;;;;;;;;;;17.10;62.20;;;;;;5038984;28;989;-66
2023/03/15 01:40:12;;;;;;;;;;;17.10;62.20;;;;;;5038125;28;955;-67
2023/03/15 01:43:13;;;;;;;;;;;17.10;62.20;;;;;;5039491;28;1273;-66
2023/03/15 01:45:52;;;;;;;;;;;17.10;62.20;;;;;;5008476;28;1544;-68
2023/03/15 01:48:17;;;;;;;;;;;17.10;62.20;;;;;;5034461;28;1278;-68
2023/03/15 01:50:43;;;;;;;;;;;17.10;62.20;;;;;;5036732;28;931;-68
2023/03/15 01:53:08;;;;;;;;;;;17.10;62.20;;;;;;5036930;28;1914;-67
2023/03/15 01:55:34;;;;;;;;;;;17.10;62.20;;;;;;5038117;28;808;-68
2023/03/15 01:57:59;;;;;;;;;;;17.10;62.20;;;;;;5037898;28;792;-68
2023/03/15 02:00:24;;;;;;;;;;;17.10;62.20;;;;;;5040981;28;930;-67
2023/03/15 02:02:51;;;;;;;;;;;17.10;62.20;;;;;;5035448;28;1317;-68
2023/03/15 02:05:18;;;;;;;;;;;17.10;62.20;;;;;;5025830;28;1310;-66
2023/03/15 02:07:48;;;;;;;;;;;17.10;62.30;;;;;;5040569;28;941;-66
2023/03/15 02:10:34;;;;;;;;;;;17.10;62.20;;;;;;5044518;28;852;-65
2023/03/15 02:12:59;;;;;;;;;;;17.10;62.30;;;;;;5036468;28;1906;-66
2023/03/15 02:15:25;;;;;;;;;;;17.10;62.20;;;;;;5035553;28;893;-68
2023/03/15 02:17:50;;;;;;;;;;;17.10;62.20;;;;;;5037710;28;844;-68
2023/03/15 02:20:26;;;;;;;;;;;17.10;62.30;;;;;;5041047;28;886;-68
2023/03/15 02:22:55;;;;;;;;;;;17.00;62.20;;;;;;5042194;28;1177;-68
2023/03/15 02:25:23;;;;;;;;;;;17.10;62.20;;;;;;5035838;28;860;-68
2023/03/15 02:27:48;;;;;;;;;;;17.10;62.30;;;;;;5037493;28;1277;-68
2023/03/15 02:30:14;;;;;;;;;;;17.10;62.30;;;;;;5036501;28;1002;-68
2023/03/15 02:32:39;;;;;;;;;;;17.10;62.30;;;;;;5038102;28;1894;-67
2023/03/15 02:35:05;;;;;;;;;;;17.10;62.30;;;;;;5035158;28;958;-68
2023/03/15 02:37:30;;;;;;;;;;;17.10;62.30;;;;;;5034969;28;1360;-67
2023/03/15 02:39:56;;;;;;;;;;;17.00;63.00;;;;;;5038117;28;864;-68
2023/03/15 02:42:22;;;;;;;;;;;17.10;62.30;;;;;;5036893;28;1233;-67
2023/03/15 02:44:48;;;;;;;;;;;17.10;62.30;;;;;;5037065;28;1469;-67
2023/03/15 02:47:19;;;;;;;;;;;17.00;62.20;;;;;;5035443;28;1093;-68
2023/03/15 02:49:45;;;;;;;;;;;17.10;62.30;;;;;;5036878;28;837;-68
2023/03/15 02:52:12;;;;;;;;;;;17.00;62.20;;;;;;5045597;28;1360;-66
2023/03/15 02:54:42;;;;;;;;;;;17.00;62.30;;;;;;5039803;28;1898;-66
2023/03/15 02:57:10;;;;;;;;;;;17.00;62.30;;;;;;5035446;28;911;-66
2023/03/15 02:59:36;;;;;;;;;;;17.00;62.30;;;;;;5039550;28;1030;-66
2023/03/15 03:02:01;;;;;;;;;;;17.00;62.30;;;;;;5038787;28;859;-67
2023/03/15 03:04:27;;;;;;;;;;;17.00;62.30;;;;;;5039754;28;1191;-67
2023/03/15 03:06:52;;;;;;;;;;;17.00;62.30;;;;;;5037315;28;1416;-66
2023/03/15 03:09:18;;;;;;;;;;;17.00;62.30;;;;;;5038235;28;817;-67
2023/03/15 03:11:43;;;;;;;;;;;17.00;62.30;;;;;;5038488;28;903;-67
2023/03/15 03:14:08;;;;;;;;;;;17.00;62.30;;;;;;5038679;28;1973;-67
2023/03/15 03:16:34;;;;;;;;;;;17.00;62.30;;;;;;5037631;28;1080;-67
2023/03/15 03:18:59;;;;;;;;;;;17.00;62.30;;;;;;5037508;28;888;-67
2023/03/15 03:21:25;;;;;;;;;;;17.00;62.30;;;;;;5039284;28;805;-67
2023/03/15 03:23:50;;;;;;;;;;;17.10;62.30;;;;;;5038324;28;1306;-67
2023/03/15 03:26:16;;;;;;;;;;;17.00;62.30;;;;;;5038738;28;1376;-67
2023/03/15 03:28:43;;;;;;;;;;;17.00;62.30;;;;;;5040914;28;820;-67
2023/03/15 03:31:14;;;;;;;;;;;17.00;62.30;;;;;;5040148;28;847;-66
2023/03/15 03:33:39;;;;;;;;;;;17.00;62.30;;;;;;5039802;28;1898;-66
2023/03/15 03:36:05;;;;;;;;;;;17.00;62.30;;;;;;5038802;28;796;-66
2023/03/15 03:38:31;;;;;;;;;;;17.00;62.30;;;;;;5042208;28;1077;-67
2023/03/15 03:40:56;;;;;;;;;;;17.00;62.30;;;;;;5041903;28;955;-66
2023/03/15 03:43:21;;;;;;;;;;;17.00;62.30;;;;;;5043791;28;1347;-67
2023/03/15 03:45:47;;;;;;;;;;;17.00;62.30;;;;;;5041864;28;816;-67
2023/03/15 03:48:12;;;;;;;;;;;17.00;62.30;;;;;;5043461;28;879;-66
2023/03/15 03:50:38;;;;;;;;;;;17.00;62.30;;;;;;5039490;28;1022;-67
2023/03/15 03:53:03;;;;;;;;;;;17.00;62.30;;;;;;5041574;28;1971;-66
2023/03/15 03:55:29;;;;;;;;;;;17.00;62.30;;;;;;5042769;28;880;-67
2023/03/15 03:57:54;;;;;;;;;;;17.00;62.30;;;;;;5041956;28;811;-67
2023/03/15 04:00:20;;;;;;;;;;;17.10;62.40;;;;;;5041953;28;1015;-67
2023/03/15 04:02:46;;;;;;;;;;;17.10;62.40;;;;;;5041792;28;1622;-67
2023/03/15 04:05:11;;;;;;;;;;;17.10;62.40;;;;;;5040377;28;1200;-67
2023/03/15 04:07:37;;;;;;;;;;;17.00;62.30;;;;;;5040822;28;959;-68
2023/03/15 04:10:03;;;;;;;;;;;17.00;62.30;;;;;;5039233;28;978;-68
2023/03/15 04:12:28;;;;;;;;;;;17.00;62.30;;;;;;5041345;28;1265;-68
2023/03/15 04:14:54;;;;;;;;;;;17.00;62.30;;;;;;5028663;28;1906;-68
2023/03/15 04:17:19;;;;;;;;;;;17.00;62.30;;;;;;5041600;28;1527;-69
2023/03/15 04:19:45;;;;;;;;;;;17.00;62.30;;;;;;5039155;28;1014;-69
2023/03/15 04:22:14;;;;;;;;;;;17.10;62.40;;;;;;5041517;28;1224;-69
2023/03/15 04:24:42;;;;;;;;;;;17.00;62.30;;;;;;5037496;28;993;-69
2023/03/15 04:27:08;;;;;;;;;;;17.00;62.30;;;;;;5040624;28;1278;-69
2023/03/15 04:29:33;;;;;;;;;;;17.10;62.40;;;;;;5041863;28;1071;-67
2023/03/15 04:32:01;;;;;;;;;;;17.10;62.40;;;;;;5043652;28;847;-68
2023/03/15 04:34:27;;;;;;;;;;;17.00;62.30;;;;;;5040609;28;1906;-67
2023/03/15 04:36:53;;;;;;;;;;;17.10;62.40;;;;;;5043171;28;1383;-68
2023/03/15 04:39:19;;;;;;;;;;;17.00;62.40;;;;;;5040851;28;828;-67
2023/03/15 04:41:44;;;;;;;;;;;17.00;62.30;;;;;;5037476;28;930;-68
2023/03/15 04:44:10;;;;;;;;;;;17.00;62.30;;;;;;5036275;28;1289;-69
2023/03/15 04:46:35;;;;;;;;;;;17.00;62.30;;;;;;5040485;28;875;-68
2023/03/15 04:49:02;;;;;;;;;;;17.00;62.40;;;;;;5042188;28;1030;-69
2023/03/15 04:51:27;;;;;;;;;;;17.00;62.40;;;;;;5043418;28;836;-69
2023/03/15 04:53:53;;;;;;;;;;;17.00;62.40;;;;;;5040752;28;1973;-68
2023/03/15 04:56:18;;;;;;;;;;;17.10;62.40;;;;;;5035638;28;816;-69
2023/03/15 04:58:44;;;;;;;;;;;17.00;62.40;;;;;;5045441;28;888;-69
2023/03/15 05:01:09;;;;;;;;;;;17.00;62.40;;;;;;5039492;28;934;-68
2023/03/15 05:03:35;;;;;;;;;;;17.00;62.40;;;;;;5041149;28;1333;-69
2023/03/15 05:06:06;;;;;;;;;;;17.00;62.40;;;;;;5038032;28;875;-69
2023/03/15 05:08:35;;;;;;;;;;;17.00;62.40;;;;;;5039839;28;892;-69
2023/03/15 05:11:04;;;;;;;;;;;17.00;62.30;;;;;;5039867;28;969;-68
2023/03/15 05:13:29;;;;;;;;;;;17.10;62.40;;;;;;5041454;28;1914;-66
2023/03/15 05:15:55;;;;;;;;;;;17.10;62.30;;;;;;5040718;28;887;-66
2023/03/15 05:18:20;;;;;;;;;;;17.10;62.20;;;;;;5040206;28;899;-67
2023/03/15 05:20:46;;;;;;;;;;;17.10;62.10;;;;;;5037761;28;1525;-66
2023/03/15 05:23:12;;;;;;;;;;;17.20;62.00;;;;;;5042035;28;1240;-66
2023/03/15 05:25:38;;;;;;;;;;;17.20;61.80;;;;;;5037667;28;845;-68
2023/03/15 05:28:04;;;;;;;;;;;17.20;61.70;;;;;;5040245;28;1268;-68
2023/03/15 05:30:30;;;;;;;;;;;17.30;61.70;;;;;;5042580;28;836;-67
2023/03/15 05:32:55;;;;;;;;;;;17.30;61.50;;;;;;5041213;28;1890;-66
2023/03/15 05:35:23;;;;;;;;;;;17.30;61.40;;;;;;5036871;28;1465;-68
2023/03/15 05:37:48;;;;;;;;;;;17.30;61.30;;;;;;5042773;28;1655;-67
2023/03/15 05:40:14;;;;;;;;;;;17.40;61.20;;;;;;5037734;28;1361;-66
2023/03/15 05:42:40;;;;;;;;;;;17.40;61.10;;;;;;5037855;28;1298;-66
2023/03/15 05:45:06;;;;;;;;;;;17.40;61.00;;;;;;5037635;28;832;-66
2023/03/15 05:47:31;;;;;;;;;;;17.50;61.10;;;;;;5039518;28;1567;-66
2023/03/15 05:49:57;;;;;;;;;;;17.50;60.90;;;;;;5039930;28;1030;-67
2023/03/15 05:52:23;;;;;;;;;;;17.50;60.90;;;;;;5038557;28;1351;-66
2023/03/15 05:54:48;;;;;;;;;;;17.50;60.80;;;;;;5039217;28;1906;-66
2023/03/15 05:57:14;;;;;;;;;;;17.50;60.80;;;;;;5038780;28;939;-69
2023/03/15 05:59:39;;;;;;;;;;;17.50;60.70;;;;;;5043646;28;952;-68
2023/03/15 06:02:05;;;;;;;;;;;17.60;60.80;;;;;;5038644;28;904;-66
2023/03/15 06:04:30;;;;;;;;;;;17.60;60.70;;;;;;5039253;28;1367;-65
2023/03/15 06:06:56;;;;;;;;;;;17.50;60.60;;;;;;5039257;28;1077;-67
2023/03/15 06:09:21;;;;;;;;;;;17.60;60.70;;;;;;5038216;28;840;-67
2023/03/15 06:11:46;;;;;;;;;;;17.50;60.60;;;;;;5024658;28;1254;-66
2023/03/15 06:14:12;;;;;;;;;;;17.50;60.60;;;;;;5037413;28;1972;-67
2023/03/15 06:16:37;;;;;;;;;;;17.50;60.60;;;;;;5040233;28;951;-68
2023/03/15 06:19:03;;;;;;;;;;;17.50;60.50;;;;;;5041194;28;852;-67
2023/03/15 06:21:28;;;;;;;;;;;17.60;60.60;;;;;;5043311;28;907;-65
2023/03/15 06:23:54;;;;;;;;;;;17.60;60.60;;;;;;5039483;28;1370;-65
2023/03/15 06:26:20;;;;;;;;;;;17.60;60.60;;;;;;5036107;28;1721;-65
2023/03/15 06:28:46;;;;;;;;;;;17.60;60.70;;;;;;5038551;28;1380;-66
2023/03/15 06:31:12;;;;;;;;;;;17.50;60.60;;;;;;5038499;28;1385;-66
2023/03/15 06:33:37;;;;;;;;;;;17.50;60.60;;;;;;5037305;28;1902;-66
2023/03/15 06:36:03;;;;;;;;;;;17.50;60.60;;;;;;5038555;28;903;-66
2023/03/15 06:38:30;;;;;;;;;;;17.50;60.60;;;;;;5039717;28;1377;-68
2023/03/15 06:40:57;;;;;;;;;;;17.60;60.70;;;;;;5038824;28;1165;-65
2023/03/15 06:43:23;;;;;;;;;;;17.50;60.70;;;;;;5038022;28;1402;-65
2023/03/15 06:45:49;;;;;;;;;;;17.50;60.70;;;;;;5040252;28;819;-66
2023/03/15 06:48:14;;;;;;;;;;;17.50;60.70;;;;;;5036915;28;1046;-66
2023/03/15 06:50:39;;;;;;;;;;;17.50;60.70;;;;;;5043661;28;815;-66
2023/03/15 06:53:05;;;;;;;;;;;17.50;60.80;;;;;;5038911;28;1969;-65
2023/03/15 06:55:30;;;;;;;;;;;17.50;60.80;;;;;;5038270;28;906;-66
2023/03/15 06:57:56;;;;;;;;;;;17.50;60.80;;;;;;5043188;28;870;-65
2023/03/15 07:00:21;;;;;;;;;;;17.50;60.80;;;;;;5040271;28;903;-67
2023/03/15 07:02:47;;;;;;;;;;;17.50;60.80;;;;;;5034404;28;1253;-66
2023/03/15 07:05:13;;;;;;;;;;;17.50;60.90;;;;;;5036227;28;816;-67
2023/03/15 07:07:38;;;;;;;;;;;17.50;60.90;;;;;;5035494;28;971;-67
2023/03/15 07:10:04;;;;;;;;;;;17.40;60.90;;;;;;5035639;28;840;-66
2023/03/15 07:12:29;;;;;;;;;;;17.40;60.90;;;;;;5038935;28;1343;-68
2023/03/15 07:14:55;;;;;;;;;;;17.40;60.90;;;;;;5041384;28;1902;-68
2023/03/15 07:17:20;;;;;;;;;;;17.50;61.00;;;;;;5038063;28;982;-67
2023/03/15 07:19:46;;;;;;;;;;;17.40;61.00;;;;;;5045038;28;1242;-66
2023/03/15 07:22:12;;;;;;;;;;;17.50;61.10;;;;;;5044082;28;1242;-66
2023/03/15 07:24:38;;;;;;;;;;;17.40;61.00;;;;;;5041604;28;1332;-66
2023/03/15 07:27:03;;;;;;;;;;;17.40;61.10;;;;;;5042851;28;1603;-66
2023/03/15 07:29:29;;;;;;;;;;;17.40;61.10;;;;;;5042546;28;1336;-67
2023/03/15 07:31:54;;;;;;;;;;;17.40;61.10;;;;;;5042867;28;1407;-66
2023/03/15 07:34:20;;;;;;;;;;;17.40;61.10;;;;;;5038905;28;1910;-66
2023/03/15 07:36:46;;;;;;;;;;;17.40;61.20;;;;;;5041284;28;1527;-66
2023/03/15 07:39:11;;;;;;;;;;;17.40;61.20;;;;;;5037442;28;880;-68
2023/03/15 07:41:37;;;;;;;;;;;17.40;61.20;;;;;;5037490;28;786;-69
2023/03/15 07:44:02;;;;;;;;;;;17.40;61.30;;;;;;5039736;28;1456;-69
2023/03/15 07:46:28;;;;;;;;;;;17.30;61.20;;;;;;5041427;28;871;-67
2023/03/15 07:48:54;;;;;;;;;;;17.40;61.40;;;;;;5041989;28;891;-68
2023/03/15 07:51:19;;;;;;;;;;;17.30;61.30;;;;;;5041559;28;804;-67
2023/03/15 07:53:44;;;;;;;;;;;17.30;61.30;;;;;;5046405;28;1906;-67
2023/03/15 07:56:10;;;;;;;;;;;17.40;61.40;;;;;;5043155;28;1641;-69
2023/03/15 07:58:35;;;;;;;;;;;17.40;61.30;;;;;;5042267;28;860;-71
2023/03/15 08:01:01;;;;;;;;;;;17.40;61.30;;;;;;5042820;28;835;-72
2023/03/15 08:03:26;;;;;;;;;;;17.40;61.20;;;;;;5046051;28;1266;-72
2023/03/15 08:05:52;;;;;;;;;;;17.40;61.20;;;;;;5038931;28;848;-71
2023/03/15 08:08:17;;;;;;;;;;;17.40;61.20;;;;;;5044932;28;851;-69
2023/03/15 08:10:43;;;;;;;;;;;17.40;61.10;;;;;;5042913;28;812;-69
2023/03/15 08:13:09;;;;;;;;;;;17.40;61.00;;;;;;5043116;28;1976;-70
2023/03/15 08:15:34;;;;;;;;;;;17.40;61.00;;;;;;5044136;28;915;-69
2023/03/15 08:17:59;;;;;;;;;;;17.50;61.00;;;;;;5044095;28;788;-69
2023/03/15 08:20:26;;;;;;;;;;;17.50;61.00;;;;;;5037782;28;1330;-69
2023/03/15 08:22:52;;;;;;;;;;;17.50;60.90;;;;;;5044493;28;1841;-69
2023/03/15 08:25:19;;;;;;;;;;;17.50;61.00;;;;;;5039271;28;1328;-68
2023/03/15 08:27:44;;;;;;;;;;;17.50;60.90;;;;;;5039470;28;1287;-69
2023/03/15 08:30:11;;;;;;;;;;;17.50;60.90;;;;;;5043477;28;1345;-69
2023/03/15 08:32:37;;;;;;;;;;;17.50;60.80;;;;;;5037522;28;1271;-68
2023/03/15 08:35:03;;;;;;;;;;;17.50;60.80;;;;;;5041007;28;1898;-69
2023/03/15 08:37:28;;;;;;;;;;;17.50;60.80;;;;;;5043772;28;1093;-71
2023/03/15 08:39:59;;;;;;;;;;;17.50;60.80;;;;;;5040562;28;887;-71
2023/03/15 08:42:28;;;;;;;;;;;17.50;60.80;;;;;;5041200;28;1304;-71
2023/03/15 08:44:53;;;;;;;;;;;17.50;60.70;;;;;;5038915;28;846;-71
2023/03/15 08:47:19;;;;;;;;;;;17.50;60.70;;;;;;5041589;28;890;-71
2023/03/15 08:49:44;;;;;;;;;;;17.60;60.80;;;;;;5043316;28;848;-70
2023/03/15 08:52:10;;;;;;;;;;;17.50;60.70;;;;;;5038874;28;899;-70
2023/03/15 08:54:35;;;;;;;;;;;17.50;60.70;;;;;;5038526;28;1963;-70
2023/03/15 08:57:01;;;;;;;;;;;17.50;60.70;;;;;;5039729;28;904;-68
2023/03/15 08:59:26;;;;;;;;;;;17.60;60.70;;;;;;5037903;28;960;-69
2023/03/15 09:01:52;;;;;;;;;;;17.50;60.70;;;;;;5037628;28;926;-67
2023/03/15 09:04:17;;;;;;;;;;;17.60;60.70;;;;;;5040012;28;1361;-67
2023/03/15 09:06:43;;;;;;;;;;;17.50;60.60;;;;;;5043690;28;1266;-69
2023/03/15 09:09:08;;;;;;;;;;;17.60;60.70;;;;;;5041784;28;928;-68
2023/03/15 09:11:34;;;;;;;;;;;17.50;60.60;;;;;;5040183;28;1084;-69
2023/03/15 09:14:00;;;;;;;;;;;17.60;60.60;;;;;;5037896;28;1922;-68
2023/03/15 09:16:25;;;;;;;;;;;17.60;60.60;;;;;;5037995;28;867;-69
2023/03/15 09:18:51;;;;;;;;;;;17.60;60.60;;;;;;5039938;28;1607;-69
2023/03/15 09:21:16;;;;;;;;;;;17.60;60.60;;;;;;5038996;28;1053;-68
2023/03/15 09:23:42;;;;;;;;;;;17.60;60.60;;;;;;5038287;28;1264;-71
2023/03/15 09:26:07;;;;;;;;;;;17.60;60.50;;;;;;5039790;28;848;-70
2023/03/15 09:28:33;;;;;;;;;;;17.60;60.60;;;;;;5038566;28;1444;-70
2023/03/15 09:30:58;;;;;;;;;;;17.60;60.50;;;;;;5035665;28;1593;-69
2023/03/15 09:33:24;;;;;;;;;;;17.60;60.50;;;;;;5039590;28;1959;-68
2023/03/15 09:35:50;;;;;;;;;;;17.60;60.60;;;;;;5039084;28;966;-69
2023/03/15 09:38:15;;;;;;;;;;;17.60;60.60;;;;;;5042202;28;1567;-68
2023/03/15 09:40:43;;;;;;;;;;;17.60;60.50;;;;;;5039758;28;982;-68
2023/03/15 09:43:10;;;;;;;;;;;17.60;60.60;;;;;;5036539;28;1296;-68
2023/03/15 09:45:36;;;;;;;;;;;17.60;60.60;;;;;;5036154;28;934;-68
2023/03/15 09:48:20;;;;;;;;;;;17.60;60.70;;;;;;5040156;28;894;-68
2023/03/15 09:50:45;;;;;;;;;;;17.60;60.70;;;;;;5040811;28;851;-68
2023/03/15 09:53:15;;;;;;;;;;;17.60;60.70;;;;;;5040455;28;1958;-68
2023/03/15 09:55:41;;;;;;;;;;;17.60;60.70;;;;;;5024771;28;1392;-69
2023/03/15 09:58:10;;;;;;;;;;;17.60;60.70;;;;;;5037314;28;1050;-68
2023/03/15 10:00:43;;;;;;;;;;;17.60;60.80;;;;;;5042866;28;1495;-68
2023/03/15 10:03:21;;;;;;;;;;;17.50;60.70;;;;;;5046998;28;1300;-67
2023/03/15 10:05:48;;;;;;;;;;;17.50;61.50;;;;;;5024525;28;1299;-68
2023/03/15 10:08:16;;;;;;;;;;;17.50;60.80;;;;;;5042879;28;1411;-68
2023/03/15 10:10:44;;;;;;;;;;;17.50;61.10;;;;;;5039824;28;1403;-68
2023/03/15 10:13:09;;;;;;;;;;;17.60;62.00;;;;;;5040344;28;1967;-68
2023/03/15 10:15:37;;;;;;;;;;;17.60;61.60;;;;;;5039936;28;1370;-67
2023/03/15 10:18:26;;;;;;;;;;;17.60;61.20;;;;;;5041951;28;1481;-67
2023/03/15 10:21:15;;;;;;;;;;;17.60;61.10;;;;;;5040069;28;1759;-70
2023/03/15 10:23:48;;;;;;;;;;;17.60;61.10;;;;;;5033569;28;1884;-68
2023/03/15 10:26:14;;;;;;;;;;;17.60;61.10;;;;;;5036600;28;1295;-69
2023/03/15 10:28:39;;;;;;;;;;;17.60;61.10;;;;;;5040952;28;937;-68
2023/03/15 10:31:24;;;;;;;;;;;17.60;61.10;;;;;;5041253;28;793;-70
2023/03/15 10:33:49;;;;;;;;;;;17.50;61.10;;;;;;5035567;28;1984;-69
2023/03/15 10:36:16;;;;;;;;;;;17.50;61.10;;;;;;5045946;28;946;-69
2023/03/15 10:38:42;;;;;;;;;;;17.60;61.30;;;;;;5037280;28;1560;-68
2023/03/15 10:41:07;;;;;;;;;;;17.60;61.20;;;;;;5035709;28;1189;-69
2023/03/15 10:43:35;;;;;;;;;;;17.60;61.20;;;;;;5039266;28;1267;-67
2023/03/15 10:46:04;;;;;;;;;;;17.60;61.20;;;;;;5043122;28;855;-68
2023/03/15 10:48:40;;;;;;;;;;;17.50;61.10;;;;;;5038175;28;1026;-69
2023/03/15 10:51:17;;;;;;;;;;;17.50;61.10;;;;;;5039705;28;1198;-69
2023/03/15 10:53:56;;;;;;;;;;;17.50;61.20;;;;;;5049690;28;1902;-69
2023/03/15 10:56:25;;;;;;;;;;;17.50;61.20;;;;;;5046445;28;891;-68
2023/03/15 10:58:51;;;;;;;;;;;17.50;61.30;;;;;;5041192;28;894;-68
2023/03/15 11:01:27;;;;;;;;;;;17.50;61.20;;;;;;5041510;28;1106;-68
2023/03/15 11:04:20;;;;;;;;;;;17.50;61.30;;;;;;5040028;28;1328;-69
2023/03/15 11:06:47;;;;;;;;;;;17.50;61.30;;;;;;5036892;28;1167;-68
2023/03/15 11:09:13;;;;;;;;;;;17.50;61.40;;;;;;5040409;28;1191;-68
2023/03/15 11:12:08;;;;;;;;;;;17.50;61.40;;;;;;5041943;28;824;-68
2023/03/15 11:14:33;;;;;;;;;;;17.40;61.30;;;;;;5040483;28;2013;-68
2023/03/15 11:17:00;;;;;;;;;;;17.50;61.40;;;;;;5040917;28;894;-68
2023/03/15 11:19:26;;;;;;;;;;;17.50;61.50;;;;;;5029043;28;1413;-68
2023/03/15 11:21:52;;;;;;;;;;;17.50;61.50;;;;;;5048880;28;895;-68
2023/03/15 11:24:37;;;;;;;;;;;17.40;61.50;;;;;;5048328;28;1342;-69
2023/03/15 11:27:08;;;;;;;;;;;17.40;61.50;;;;;;5042661;28;1385;-68
2023/03/15 11:29:34;;;;;;;;;;;17.40;61.50;;;;;;5042780;28;1042;-68
2023/03/15 11:32:01;;;;;;;;;;;17.40;61.70;;;;;;5042743;28;861;-68
2023/03/15 11:34:45;;;;;;;;;;;17.40;61.70;;;;;;5039225;28;1878;-68
2023/03/15 11:37:13;;;;;;;;;;;17.40;61.80;;;;;;5037412;28;1168;-68
2023/03/15 11:39:58;;;;;;;;;;;17.50;61.80;;;;;;5038964;28;891;-68
2023/03/15 11:42:26;;;;;;;;;;;17.50;62.20;;;;;;5039295;28;1275;-69
2023/03/15 11:44:53;;;;;;;;;;;17.50;61.90;;;;;;5043613;28;815;-68
2023/03/15 11:47:22;;;;;;;;;;;17.50;62.00;;;;;;5041712;28;899;-69
2023/03/15 11:49:51;;;;;;;;;;;17.50;62.20;;;;;;5041867;28;819;-68
2023/03/15 11:52:18;;;;;;;;;;;17.60;62.10;;;;;;5049990;28;1251;-69
2023/03/15 11:54:44;;;;;;;;;;;17.50;62.00;;;;;;5040156;28;1967;-70
2023/03/15 11:57:29;;;;;;;;;;;17.60;62.30;;;;;;5036957;28;1662;-65
2023/03/15 11:59:55;;;;;;;;;;;17.60;62.20;;;;;;5042009;28;1336;-66
2023/03/15 12:02:25;;;;;;;;;;;17.60;62.40;;;;;;5038141;28;2021;-66
2023/03/15 12:04:51;;;;;;;;;;;17.60;62.30;;;;;;5036935;28;912;-70
2023/03/15 12:07:17;;;;;;;;;;;17.60;62.10;;;;;;5042933;28;1298;-67
2023/03/15 12:09:54;;;;;;;;;;;17.60;62.20;;;;;;5038939;28;1151;-68
2023/03/15 12:12:23;;;;;;;;;;;17.60;62.20;;;;;;5040448;28;1260;-68
2023/03/15 12:15:00;;;;;;;;;;;17.60;62.20;;;;;;5041447;28;1906;-68
2023/03/15 12:17:26;;;;;;;;;;;17.60;62.30;;;;;;5041458;28;833;-66
2023/03/15 12:20:00;;;;;;;;;;;17.60;62.30;;;;;;5042406;28;1269;-65
2023/03/15 12:22:29;;;;;;;;;;;17.60;62.30;;;;;;5043873;28;1287;-66
2023/03/15 12:24:55;;;;;;;;;;;17.60;62.10;;;;;;5044521;28;1357;-69
2023/03/15 12:27:20;;;;;;;;;;;17.60;62.10;;;;;;5048045;28;1468;-68
2023/03/15 12:29:46;;;;;;;;;;;17.60;62.10;;;;;;5042798;28;1305;-70
2023/03/15 12:32:15;;;;;;;;;;;17.60;62.10;;;;;;5043475;28;1339;-70
2023/03/15 12:34:41;;;;;;;;;;;17.50;62.00;;;;;;5041458;28;1901;-68
2023/03/15 12:37:12;;;;;;;;;;;17.50;62.10;;;;;;5041960;28;1197;-70
2023/03/15 12:39:39;;;;;;;;;;;17.50;62.20;;;;;;5042944;28;1391;-70
2023/03/15 12:42:05;;;;;;;;;;;17.50;62.20;;;;;;5040885;28;1433;-70
2023/03/15 12:44:30;;;;;;;;;;;17.50;62.20;;;;;;5043437;28;1352;-70
2023/03/15 12:46:59;;;;;;;;;;;17.50;62.30;;;;;;5043034;28;1326;-70
2023/03/15 12:49:25;;;;;;;;;;;17.40;63.00;;;;;;5042152;28;1014;-69
2023/03/15 12:52:09;;;;;;;;;;;17.50;62.40;;;;;;5040717;28;1295;-69
2023/03/15 12:54:42;;;;;;;;;;;17.40;62.40;;;;;;5043958;28;1906;-70
2023/03/15 12:57:12;;;;;;;;;;;17.40;62.40;;;;;;5040962;28;1416;-68
2023/03/15 12:59:47;;;;;;;;;;;17.40;62.40;;;;;;5040680;28;1597;-70
2023/03/15 13:02:27;;;;;;;;;;;17.30;62.40;;;;;;5042160;28;1422;-69
2023/03/15 13:05:08;;;;;;;;;;;17.30;62.40;;;;;;5044050;28;1429;-69
2023/03/15 13:07:46;;;;;;;;;;;17.30;62.40;;;;;;5040989;28;1336;-68
2023/03/15 13:10:30;;;;;;;;;;;17.30;62.50;;;;;;5042508;28;1462;-67
2023/03/15 13:13:06;;;;;;;;;;;17.30;62.50;;;;;;5040348;28;1981;-66
2023/03/15 13:15:45;;;;;;;;;;;17.30;62.60;;;;;;5039444;28;1332;-68
2023/03/15 13:18:16;;;;;;;;;;;17.30;62.50;;;;;;5038628;28;1378;-68
2023/03/15 13:20:54;;;;;;;;;;;17.30;62.70;;;;;;5032107;28;1437;-66
2023/03/15 13:23:26;;;;;;;;;;;17.30;62.60;;;;;;5042087;28;1391;-66
2023/03/15 13:25:51;;;;;;;;;;;17.30;62.70;;;;;;5041828;28;1369;-65
2023/03/15 13:28:21;;;;;;;;;;;17.20;62.60;;;;;;5043655;28;1279;-66
2023/03/15 13:30:47;;;;;;;;;;;17.30;62.70;;;;;;5038139;28;1440;-67
2023/03/15 13:33:17;;;;;;;;;;;17.20;62.70;;;;;;5040947;28;1957;-66
2023/03/15 13:35:43;;;;;;;;;;;17.20;62.70;;;;;;5037340;28;829;-66
2023/03/15 13:38:27;;;;;;;;;;;17.20;62.70;;;;;;5043811;28;1487;-67
2023/03/15 13:40:53;;;;;;;;;;;17.20;62.80;;;;;;5042632;28;1021;-66
2023/03/15 13:43:19;;;;;;;;;;;17.20;62.80;;;;;;5040782;28;1359;-67
2023/03/15 13:45:45;;;;;;;;;;;17.20;62.80;;;;;;5041028;28;1262;-67
2023/03/15 13:48:10;;;;;;;;;;;17.20;62.80;;;;;;5042053;28;1279;-67
2023/03/15 13:50:36;;;;;;;;;;;17.20;62.90;;;;;;5040256;28;1386;-67
2023/03/15 13:53:01;;;;;;;;;;;17.20;62.90;;;;;;5042530;28;1946;-68
2023/03/15 13:55:33;;;;;;;;;;;17.20;62.90;;;;;;5039186;28;1338;-68
2023/03/15 13:57:59;;;;;;;;;;;17.20;62.90;;;;;;5046153;28;1505;-67
2023/03/15 14:00:25;;;;;;;;;;;17.20;62.90;;;;;;5041500;28;1338;-67
2023/03/15 14:02:53;;;;;;;;;;;17.20;62.90;;;;;;5025489;28;1468;-68
2023/03/15 14:05:31;;;;;;;;;;;17.20;62.90;;;;;;5041547;28;1585;-68
2023/03/15 14:07:58;;;;;;;;;;;17.10;62.80;;;;;;5039161;28;867;-67
2023/03/15 14:10:24;;;;;;;;;;;17.10;62.80;;;;;;5037655;28;904;-67
2023/03/15 14:12:50;;;;;;;;;;;17.10;62.80;;;;;;5038222;28;1338;-67
2023/03/15 14:15:17;;;;;;;;;;;17.10;62.90;;;;;;5036425;28;1910;-67
2023/03/15 14:17:52;;;;;;;;;;;17.10;62.90;;;;;;5042597;28;883;-67
2023/03/15 14:20:17;;;;;;;;;;;17.10;62.90;;;;;;5041410;28;1371;-67
2023/03/15 14:22:43;;;;;;;;;;;17.10;62.90;;;;;;5040211;28;1514;-67
2023/03/15 14:25:18;;;;;;;;;;;17.10;63.00;;;;;;5038208;28;1656;-68
2023/03/15 14:27:44;;;;;;;;;;;17.10;62.90;;;;;;5040903;28;1382;-67
2023/03/15 14:30:22;;;;;;;;;;;17.10;62.90;;;;;;5040000;28;1471;-68
2023/03/15 14:32:51;;;;;;;;;;;17.10;63.00;;;;;;5039469;28;1473;-68
2023/03/15 14:35:19;;;;;;;;;;;17.10;63.00;;;;;;5041267;28;1966;-68
2023/03/15 14:37:44;;;;;;;;;;;17.10;63.00;;;;;;5034312;28;1489;-69